createdAt,value
2018-11-12T00:02:11.529Z,15.50
2018-11-12T00:07:16.740Z,15.60
2018-11-12T00:12:22.006Z,15.70
2018-11-12T00:17:26.992Z,15.70
2018-11-12T00:22:31.997Z,15.80
2018-11-12T00:27:37.080Z,15.90
2018-11-12T00:32:43.373Z,16.00
2018-11-12T00:37:48.224Z,16.00
2018-11-12T00:42:53.477Z,16.00
2018-11-12T00:47:58.444Z,15.90
2018-11-12T00:53:03.504Z,16.00
2018-11-12T00:58:08.333Z,16.00
2018-11-12T01:03:13.366Z,16.10
2018-11-12T01:08:18.285Z,16.10
2018-11-12T01:13:23.163Z,16.20
2018-11-12T01:18:28.106Z,16.00
2018-11-12T01:23:33.133Z,16.00
2018-11-12T01:28:39.234Z,15.80
2018-11-12T01:33:44.208Z,15.80
2018-11-12T01:38:49.461Z,15.90
2018-11-12T01:43:55.003Z,15.90
2018-11-12T01:48:59.833Z,16.00
2018-11-12T01:54:04.961Z,16.10
2018-11-12T01:59:09.941Z,16.00
2018-11-12T02:04:14.874Z,16.00
2018-11-12T02:09:20.720Z,16.20
2018-11-12T02:14:25.698Z,16.30
2018-11-12T02:19:30.821Z,16.30
2018-11-12T02:24:35.704Z,16.00
2018-11-12T02:29:40.667Z,16.00
2018-11-12T02:34:45.583Z,15.90
2018-11-12T02:39:51.011Z,15.90
2018-11-12T02:44:56.420Z,15.90
2018-11-12T02:50:01.281Z,15.90
2018-11-12T02:55:07.655Z,15.90
2018-11-12T03:00:15.940Z,15.90
2018-11-12T03:05:21.249Z,15.70
2018-11-12T03:10:26.363Z,15.70
2018-11-12T03:15:31.233Z,15.60
2018-11-12T03:20:36.145Z,15.50
2018-11-12T03:25:41.321Z,15.50
2018-11-12T03:30:46.295Z,15.50
2018-11-12T03:35:51.333Z,15.40
2018-11-12T03:40:56.459Z,15.30
2018-11-12T03:46:01.445Z,15.10
2018-11-12T03:51:06.482Z,15.00
2018-11-12T03:56:11.355Z,14.80
2018-11-12T04:01:16.223Z,14.60
2018-11-12T04:06:21.290Z,14.60
2018-11-12T04:11:26.223Z,14.50
2018-11-12T04:16:31.313Z,14.60
2018-11-12T04:21:36.271Z,14.30
2018-11-12T04:26:41.184Z,14.20
2018-11-12T04:31:46.057Z,14.20
2018-11-12T04:36:51.210Z,14.10
2018-11-12T04:41:56.183Z,14.10
2018-11-12T04:47:01.277Z,14.20
2018-11-12T04:52:06.316Z,14.10
2018-11-12T04:57:11.388Z,13.90
2018-11-12T05:02:16.246Z,13.90
2018-11-12T05:07:21.340Z,13.80
2018-11-12T05:12:26.254Z,13.80
2018-11-12T05:17:31.143Z,13.90
2018-11-12T05:22:36.226Z,13.70
2018-11-12T05:27:41.128Z,13.70
2018-11-12T05:32:46.850Z,13.70
2018-11-12T05:37:52.009Z,13.90
2018-11-12T05:42:56.906Z,14.00
2018-11-12T05:48:01.846Z,14.00
2018-11-12T05:53:06.765Z,14.00
2018-11-12T05:58:11.699Z,14.10
2018-11-12T06:03:16.831Z,14.20
2018-11-12T06:08:21.736Z,14.20
2018-11-12T06:13:27.012Z,14.20
2018-11-12T06:18:32.145Z,14.20
2018-11-12T06:23:37.225Z,14.20
2018-11-12T06:28:42.076Z,14.10
2018-11-12T06:33:47.377Z,14.20
2018-11-12T06:38:52.949Z,14.20
2018-11-12T06:43:57.965Z,14.10
2018-11-12T06:49:02.880Z,14.00
2018-11-12T06:54:08.117Z,14.10
2018-11-12T06:59:13.116Z,13.90
2018-11-12T07:04:18.664Z,13.80
2018-11-12T07:09:23.696Z,13.80
2018-11-12T07:14:28.586Z,13.90
2018-11-12T07:19:33.500Z,13.80
2018-11-12T07:24:38.645Z,13.90
2018-11-12T07:29:43.529Z,13.80
2018-11-12T07:34:48.552Z,13.90
2018-11-12T07:39:53.501Z,14.20
2018-11-12T07:44:58.445Z,14.50
2018-11-12T07:50:03.494Z,14.60
2018-11-12T07:55:10.907Z,14.80
2018-11-12T08:00:22.230Z,14.80
2018-11-12T08:05:27.423Z,15.00
2018-11-12T08:10:32.387Z,15.10
2018-11-12T08:15:37.484Z,15.30
2018-11-12T08:20:42.547Z,15.50
2018-11-12T08:25:47.596Z,15.80
2018-11-12T08:30:52.588Z,16.30
2018-11-12T08:35:57.829Z,17.00
2018-11-12T08:41:02.936Z,17.40
2018-11-12T08:46:07.952Z,17.70
2018-11-12T08:51:13.082Z,18.10
2018-11-12T08:56:18.058Z,18.20
2018-11-12T09:01:23.616Z,18.30
2018-11-12T09:06:28.950Z,18.30
2018-11-12T09:11:33.846Z,18.40
2018-11-12T09:16:39.300Z,18.50
2018-11-12T09:21:44.213Z,18.70
2018-11-12T09:26:49.339Z,19.00
2018-11-12T09:31:54.274Z,19.10
2018-11-12T09:36:59.282Z,19.20
2018-11-12T09:42:04.249Z,19.30
2018-11-12T09:47:09.249Z,19.40
2018-11-12T09:52:14.227Z,19.50
2018-11-12T09:57:19.827Z,19.90
2018-11-12T10:02:25.832Z,20.20
2018-11-12T10:07:31.709Z,20.20
2018-11-12T10:12:36.546Z,20.60
2018-11-12T10:17:42.716Z,20.30
2018-11-12T10:22:45.107Z,20.00
2018-11-12T10:27:50.636Z,20.70
2018-11-12T10:32:55.866Z,20.80
2018-11-12T10:38:00.823Z,20.70
2018-11-12T10:43:05.839Z,20.30
2018-11-12T10:48:10.852Z,20.20
2018-11-12T10:53:16.727Z,20.30
2018-11-12T10:58:21.724Z,20.60
2018-11-12T11:03:31.503Z,20.20
2018-11-12T11:08:36.417Z,20.40
2018-11-12T11:13:41.402Z,20.30
2018-11-12T11:18:49.423Z,20.50
2018-11-12T11:23:54.454Z,20.50
2018-11-12T11:28:59.466Z,21.10
2018-11-12T11:34:04.406Z,21.30
2018-11-12T11:39:10.233Z,21.30
2018-11-12T11:44:15.205Z,21.20
2018-11-12T11:49:20.140Z,21.40
2018-11-12T11:54:25.308Z,21.60
2018-11-12T11:59:30.231Z,21.50
2018-11-12T12:04:35.221Z,21.30
2018-11-12T12:09:40.181Z,21.50
2018-11-12T12:14:45.087Z,21.30
2018-11-12T12:19:50.086Z,21.20
2018-11-12T12:24:55.155Z,21.30
2018-11-12T12:30:00.080Z,21.20
2018-11-12T12:35:05.478Z,21.20
2018-11-12T12:40:13.265Z,21.00
2018-11-12T12:45:19.777Z,20.90
2018-11-12T12:50:24.678Z,21.20
2018-11-12T12:55:29.705Z,21.80
2018-11-12T13:00:34.716Z,21.60
2018-11-12T13:05:39.664Z,21.90
2018-11-12T13:10:46.081Z,21.70
2018-11-12T13:15:51.172Z,22.00
2018-11-12T13:20:56.426Z,22.10
2018-11-12T13:26:01.395Z,22.30
2018-11-12T13:31:06.594Z,21.90
2018-11-12T13:36:11.845Z,22.10
2018-11-12T13:41:16.920Z,21.90
2018-11-12T13:46:22.003Z,22.00
2018-11-12T13:51:27.208Z,23.10
2018-11-12T13:56:32.233Z,23.70
2018-11-12T14:01:37.206Z,23.00
2018-11-12T14:06:42.102Z,21.50
2018-11-12T14:11:47.100Z,21.50
2018-11-12T14:16:51.993Z,21.20
2018-11-12T14:21:57.099Z,20.70
2018-11-12T14:27:02.046Z,20.70
2018-11-12T14:32:07.263Z,20.50
2018-11-12T14:37:12.316Z,20.80
2018-11-12T14:42:17.263Z,21.20
2018-11-12T14:47:22.199Z,20.90
2018-11-12T14:52:27.403Z,21.70
2018-11-12T14:57:32.445Z,21.90
2018-11-12T15:02:37.454Z,22.20
2018-11-12T15:07:42.561Z,21.80
2018-11-12T15:12:48.027Z,21.50
2018-11-12T15:17:53.134Z,21.20
2018-11-12T15:22:58.269Z,21.10
2018-11-12T15:28:03.335Z,20.50
2018-11-12T15:33:08.459Z,20.60
2018-11-12T15:38:13.434Z,20.30
2018-11-12T15:43:18.620Z,20.10
2018-11-12T15:48:23.770Z,19.80
2018-11-12T15:53:28.752Z,19.70
2018-11-12T15:58:33.788Z,19.60
2018-11-12T16:03:38.694Z,19.60
2018-11-12T16:08:43.566Z,19.40
2018-11-12T16:13:48.477Z,19.10
2018-11-12T16:18:53.838Z,18.90
2018-11-12T16:23:58.769Z,19.00
2018-11-12T16:29:04.225Z,18.90
2018-11-12T16:34:09.490Z,18.80
2018-11-12T16:39:15.511Z,18.50
2018-11-12T16:44:20.473Z,18.60
2018-11-12T16:49:25.863Z,18.40
2018-11-12T16:54:30.892Z,18.40
2018-11-12T16:59:35.981Z,18.20
2018-11-12T17:04:40.979Z,18.30
2018-11-12T17:09:46.096Z,18.20
2018-11-12T17:14:51.055Z,18.20
2018-11-12T17:19:56.638Z,18.20
2018-11-12T17:25:02.004Z,18.10
2018-11-12T17:30:12.945Z,18.10
2018-11-12T17:35:19.004Z,18.10
2018-11-12T17:40:25.584Z,18.20
2018-11-12T17:45:30.505Z,18.30
2018-11-12T17:50:35.505Z,18.00
2018-11-12T17:55:40.433Z,18.00
2018-11-12T18:00:45.357Z,18.00
2018-11-12T18:05:50.401Z,17.90
2018-11-12T18:10:55.408Z,18.00
2018-11-12T18:16:01.194Z,18.00
2018-11-12T18:21:06.318Z,17.80
2018-11-12T18:26:11.393Z,17.80
2018-11-12T18:31:16.555Z,17.70
2018-11-12T18:36:21.637Z,17.70
2018-11-12T18:41:26.573Z,17.80
2018-11-12T18:46:31.461Z,17.80
2018-11-12T18:51:36.405Z,17.80
2018-11-12T18:56:42.665Z,17.80
2018-11-12T19:01:47.557Z,17.80
2018-11-12T19:06:52.568Z,17.80
2018-11-12T19:11:57.651Z,17.70
2018-11-12T19:17:02.617Z,17.70
2018-11-12T19:22:07.664Z,17.70
2018-11-12T19:27:13.231Z,17.70
2018-11-12T19:32:18.139Z,17.70
2018-11-12T19:37:23.391Z,17.70
2018-11-12T19:42:28.510Z,17.70
2018-11-12T19:47:33.386Z,17.80
2018-11-12T19:52:38.308Z,17.70
2018-11-12T19:57:43.554Z,17.80
2018-11-12T20:02:49.614Z,17.70
2018-11-12T20:07:54.995Z,17.60
2018-11-12T20:13:00.167Z,17.70
2018-11-12T20:18:06.737Z,17.80
2018-11-12T20:23:11.711Z,17.80
2018-11-12T20:28:16.888Z,17.80
2018-11-12T20:33:21.781Z,17.80
2018-11-12T20:38:26.827Z,17.70
2018-11-12T20:43:31.833Z,17.70
2018-11-12T20:48:36.743Z,17.70
2018-11-12T20:53:41.773Z,17.70
2018-11-12T20:58:46.763Z,17.60
2018-11-12T21:03:52.009Z,17.60
2018-11-12T21:08:57.008Z,17.50
2018-11-12T21:14:01.968Z,17.50
2018-11-12T21:19:25.381Z,17.60
2018-11-12T21:24:30.429Z,17.60
2018-11-12T21:29:35.300Z,17.70
2018-11-12T21:34:45.545Z,17.60
2018-11-12T21:39:50.843Z,17.50
2018-11-12T21:44:56.320Z,17.50
2018-11-12T21:50:01.381Z,17.40
2018-11-12T21:55:06.800Z,17.40
2018-11-12T22:00:30.039Z,17.40
2018-11-12T22:05:35.200Z,17.40
2018-11-12T22:10:40.063Z,17.40
2018-11-12T22:15:45.021Z,17.40
2018-11-12T22:20:50.061Z,17.30
2018-11-12T22:25:55.145Z,17.40
2018-11-12T22:31:00.049Z,17.40
2018-11-12T22:36:04.927Z,17.30
2018-11-12T22:41:10.002Z,17.40
2018-11-12T22:46:16.021Z,17.40
2018-11-12T22:51:21.014Z,17.30
2018-11-12T22:56:25.882Z,17.20
2018-11-12T23:01:30.951Z,17.20
2018-11-12T23:06:35.913Z,17.20
2018-11-12T23:11:40.776Z,17.20
2018-11-12T23:16:45.723Z,17.20
2018-11-12T23:21:50.753Z,17.20
2018-11-12T23:26:55.769Z,17.10
2018-11-12T23:32:00.645Z,17.10
2018-11-12T23:37:06.067Z,17.10
2018-11-12T23:42:10.954Z,17.00
2018-11-12T23:47:16.235Z,17.10
2018-11-12T23:52:21.390Z,17.00
2018-11-12T23:57:26.295Z,17.10
